createdAt,value
2022-09-27T00:00:37.291Z,96203.06
2022-09-27T00:03:03.882Z,96199.91
2022-09-27T00:05:30.501Z,96197.91
2022-09-27T00:07:56.992Z,96197.41
2022-09-27T00:10:23.497Z,96195.84
2022-09-27T00:12:50.037Z,96198.50
2022-09-27T00:15:16.898Z,96202.59
2022-09-27T00:17:43.501Z,96202.91
2022-09-27T00:20:09.964Z,96200.88
2022-09-27T00:22:36.435Z,96202.44
2022-09-27T00:25:05.689Z,96196.63
2022-09-27T00:27:32.146Z,96192.72
2022-09-27T00:29:58.610Z,96182.41
2022-09-27T00:32:25.124Z,96184.25
2022-09-27T00:34:51.792Z,96185.38
2022-09-27T00:37:18.417Z,96183.47
2022-09-27T00:39:44.955Z,96183.03
2022-09-27T00:42:12.160Z,96178.47
2022-09-27T00:44:38.674Z,96178.03
2022-09-27T00:47:21.598Z,96184.13
2022-09-27T00:49:52.426Z,96173.31
2022-09-27T00:52:26.060Z,96177.84
2022-09-27T00:55:01.636Z,96175.19
2022-09-27T00:57:28.114Z,96172.03
2022-09-27T00:59:59.191Z,96175.81
2022-09-27T01:02:25.761Z,96170.81
2022-09-27T01:04:53.394Z,96171.91
2022-09-27T01:07:19.854Z,96179.13
2022-09-27T01:09:46.392Z,96178.59
2022-09-27T01:12:31.323Z,96175.94
2022-09-27T01:15:05.389Z,96177.81
2022-09-27T01:17:40.986Z,96185.03
2022-09-27T01:20:41.448Z,96179.22
2022-09-27T01:23:35.116Z,96183.78
2022-09-27T01:26:29.456Z,96179.09
2022-09-27T01:29:02.924Z,96173.75
2022-09-27T01:31:33.960Z,96158.88
2022-09-27T01:34:03.565Z,96173.28
2022-09-27T01:36:38.244Z,96172.50
2022-09-27T01:39:29.198Z,96161.06
2022-09-27T01:42:22.186Z,96157.63
2022-09-27T01:45:06.663Z,96154.19
2022-09-27T01:47:37.826Z,96154.81
2022-09-27T01:50:26.876Z,96154.47
2022-09-27T01:52:55.293Z,96145.25
2022-09-27T01:55:23.828Z,96141.31
2022-09-27T01:57:54.626Z,96146.66
2022-09-27T02:00:21.157Z,96143.22
2022-09-27T02:02:55.641Z,96140.88
2022-09-27T02:05:23.164Z,96148.41
2022-09-27T02:07:56.477Z,96141.50
2022-09-27T02:10:25.017Z,96138.03
2022-09-27T02:13:33.655Z,96139.94
2022-09-27T02:16:03.153Z,96139.16
2022-09-27T02:18:34.170Z,96137.88
2022-09-27T02:21:01.243Z,96138.69
2022-09-27T02:23:45.263Z,96139.31
2022-09-27T02:26:38.648Z,96138.53
2022-09-27T02:29:11.271Z,96138.81
2022-09-27T02:31:37.800Z,96139.16
2022-09-27T02:34:16.346Z,96141.47
2022-09-27T02:36:42.803Z,96136.81
2022-09-27T02:39:09.386Z,96132.72
2022-09-27T02:41:35.971Z,96132.56
2022-09-27T02:44:05.095Z,96142.91
2022-09-27T02:46:54.740Z,96139.16
2022-09-27T02:49:31.850Z,96140.72
2022-09-27T02:52:23.432Z,96134.59
2022-09-27T02:55:03.809Z,96146.03
2022-09-27T02:57:57.726Z,96152.13
2022-09-27T03:00:32.439Z,96146.19
2022-09-27T03:03:00.953Z,96147.31
2022-09-27T03:05:30.146Z,96154.97
2022-09-27T03:07:57.027Z,96151.53
2022-09-27T03:10:27.999Z,96149.47
2022-09-27T03:12:54.766Z,96155.56
2022-09-27T03:15:21.236Z,96150.75
2022-09-27T03:17:47.704Z,96158.25
2022-09-27T03:20:14.195Z,96157.44
2022-09-27T03:22:40.931Z,96158.88
2022-09-27T03:25:07.921Z,96167.47
2022-09-27T03:27:34.379Z,96169.34
2022-09-27T03:30:01.202Z,96170.78
2022-09-27T03:32:28.213Z,96167.63
2022-09-27T03:34:55.323Z,96164.97
2022-09-27T03:37:22.114Z,96180.47
2022-09-27T03:39:49.164Z,96177.31
2022-09-27T03:42:15.633Z,96175.75
2022-09-27T03:44:43.004Z,96174.97
2022-09-27T03:47:09.478Z,96177.19
2022-09-27T03:49:35.992Z,96175.59
2022-09-27T03:52:02.473Z,96183.56
2022-09-27T03:54:28.928Z,96175.13
2022-09-27T03:56:55.689Z,96185.28
2022-09-27T03:59:22.151Z,96183.09
2022-09-27T04:01:48.651Z,96176.22
2022-09-27T04:04:15.179Z,96179.19
2022-09-27T04:06:41.646Z,96179.50
2022-09-27T04:09:08.283Z,96176.84
2022-09-27T04:11:34.732Z,96179.81
2022-09-27T04:14:01.921Z,96180.59
2022-09-27T04:16:28.405Z,96174.50
2022-09-27T04:18:54.904Z,96171.34
2022-09-27T04:21:22.512Z,96183.56
2022-09-27T04:23:48.977Z,96185.13
2022-09-27T04:26:15.468Z,96185.75
2022-09-27T04:28:43.013Z,96186.53
2022-09-27T04:31:09.591Z,96183.41
2022-09-27T04:33:36.151Z,96191.38
2022-09-27T04:36:21.140Z,96181.84
2022-09-27T04:38:48.449Z,96179.47
2022-09-27T04:41:15.373Z,96185.56
2022-09-27T04:43:41.854Z,96190.09
2022-09-27T04:46:08.348Z,96187.75
2022-09-27T04:48:35.280Z,96187.28
2022-09-27T04:51:04.921Z,96188.09
2022-09-27T04:53:31.506Z,96186.03
2022-09-27T04:55:58.261Z,96190.56
2022-09-27T04:58:24.799Z,96200.72
2022-09-27T05:00:52.355Z,96191.97
2022-09-27T05:03:19.450Z,96188.19
2022-09-27T05:05:45.897Z,96192.06
2022-09-27T05:08:12.349Z,96204.16
2022-09-27T05:10:38.801Z,96200.56
2022-09-27T05:13:05.287Z,96207.13
2022-09-27T05:15:31.789Z,96216.66
2022-09-27T05:17:58.732Z,96220.44
2022-09-27T05:20:25.602Z,96214.34
2022-09-27T05:22:52.392Z,96222.31
2022-09-27T05:25:18.909Z,96232.94
2022-09-27T05:27:45.404Z,96223.09
2022-09-27T05:30:12.050Z,96229.81
2022-09-27T05:32:43.859Z,96237.81
2022-09-27T05:35:10.477Z,96234.34
2022-09-27T05:37:36.966Z,96231.19
2022-09-27T05:40:16.847Z,96243.38
2022-09-27T05:42:51.364Z,96235.72
2022-09-27T05:45:17.958Z,96235.72
2022-09-27T05:47:44.423Z,96242.91
2022-09-27T05:50:10.866Z,96250.09
2022-09-27T05:52:37.333Z,96250.41
2022-09-27T05:55:03.995Z,96250.41
2022-09-27T05:57:30.488Z,96249.31
2022-09-27T05:59:56.925Z,96247.75
2022-09-27T06:02:23.491Z,96248.06
2022-09-27T06:04:49.946Z,96262.91
2022-09-27T06:07:16.383Z,96254.16
2022-09-27T06:09:44.244Z,96262.13
2022-09-27T06:12:11.802Z,96268.22
2022-09-27T06:14:38.253Z,96266.97
2022-09-27T06:17:05.202Z,96279.25
2022-09-27T06:19:31.721Z,96272.16
2022-09-27T06:21:58.186Z,96269.97
2022-09-27T06:24:24.637Z,96274.91
2022-09-27T06:26:51.082Z,96277.25
2022-09-27T06:29:17.534Z,96282.56
2022-09-27T06:31:43.984Z,96287.09
2022-09-27T06:34:10.435Z,96284.75
2022-09-27T06:36:36.873Z,96285.81
2022-09-27T06:39:03.351Z,96290.84
2022-09-27T06:41:29.804Z,96287.88
2022-09-27T06:43:56.259Z,96298.19
2022-09-27T06:46:22.747Z,96278.16
2022-09-27T06:48:49.206Z,96305.13
2022-09-27T06:51:15.816Z,96301.78
2022-09-27T06:53:42.275Z,96302.19
2022-09-27T06:56:08.805Z,96307.34
2022-09-27T06:58:53.802Z,96314.53
2022-09-27T07:01:20.387Z,96319.84
2022-09-27T07:03:50.424Z,96324.38
2022-09-27T07:06:22.788Z,96323.78
2022-09-27T07:08:53.035Z,96332.03
2022-09-27T07:11:19.590Z,96328.59
2022-09-27T07:13:46.045Z,96338.97
2022-09-27T07:16:13.454Z,96337.38
2022-09-27T07:18:41.011Z,96342.53
2022-09-27T07:21:08.699Z,96342.53
2022-09-27T07:23:36.133Z,96348.44
2022-09-27T07:26:04.452Z,96355.63
2022-09-27T07:28:31.623Z,96349.53
2022-09-27T07:30:58.212Z,96350.59
2022-09-27T07:33:24.760Z,96356.41
2022-09-27T07:35:51.217Z,96344.50
2022-09-27T07:38:17.735Z,96366.41
2022-09-27T07:40:44.338Z,96363.25
2022-09-27T07:43:12.162Z,96374.53
2022-09-27T07:45:38.657Z,96370.69
2022-09-27T07:48:08.684Z,96376.47
2022-09-27T07:50:35.425Z,96374.31
2022-09-27T07:53:01.916Z,96388.19
2022-09-27T07:55:28.362Z,96388.19
2022-09-27T07:58:05.190Z,96391.63
2022-09-27T08:00:31.649Z,96406.50
2022-09-27T08:02:58.101Z,96404.34
2022-09-27T08:05:24.617Z,96404.03
2022-09-27T08:07:55.371Z,96400.59
2022-09-27T08:10:21.824Z,96412.78
2022-09-27T08:12:48.298Z,96406.69
2022-09-27T08:15:14.743Z,96413.56
2022-09-27T08:17:41.467Z,96405.59
2022-09-27T08:20:08.328Z,96410.66
2022-09-27T08:22:40.258Z,96408.78
2022-09-27T08:25:06.920Z,96417.31
2022-09-27T08:27:34.425Z,96412.00
2022-09-27T08:30:00.876Z,96421.84
2022-09-27T08:32:28.997Z,96423.44
2022-09-27T08:34:55.441Z,96435.47
2022-09-27T08:37:22.172Z,96432.03
2022-09-27T08:39:48.701Z,96432.03
2022-09-27T08:42:35.035Z,96433.59
2022-09-27T08:45:18.629Z,96437.03
2022-09-27T08:47:50.804Z,96439.69
2022-09-27T08:50:39.727Z,96443.13
2022-09-27T08:53:30.581Z,96442.34
2022-09-27T08:55:57.593Z,96438.13
2022-09-27T08:58:31.103Z,96445.31
2022-09-27T09:00:59.681Z,96448.94
2022-09-27T09:03:28.310Z,96444.41
2022-09-27T09:06:26.347Z,96447.06
2022-09-27T09:09:15.695Z,96460.88
2022-09-27T09:12:34.292Z,96451.09
2022-09-27T09:15:14.271Z,96457.66
2022-09-27T09:17:56.005Z,96457.84
2022-09-27T09:20:45.281Z,96456.59
2022-09-27T09:23:22.038Z,96460.44
2022-09-27T09:26:05.793Z,96456.09
2022-09-27T09:28:58.160Z,96455.91
2022-09-27T09:31:51.863Z,96462.03
2022-09-27T09:34:33.565Z,96457.97
2022-09-27T09:37:17.412Z,96451.56
2022-09-27T09:39:55.800Z,96458.47
2022-09-27T09:42:33.565Z,96445.16
2022-09-27T09:45:05.983Z,96451.75
2022-09-27T09:47:38.090Z,96454.66
2022-09-27T09:50:07.095Z,96450.50
2022-09-27T09:52:39.972Z,96456.34
2022-09-27T09:55:13.172Z,96450.59
2022-09-27T09:57:44.133Z,96445.16
2022-09-27T10:00:14.852Z,96449.38
2022-09-27T10:02:45.492Z,96445.63
2022-09-27T10:05:14.990Z,96454.31
2022-09-27T10:07:41.671Z,96441.78
2022-09-27T10:10:08.823Z,96443.69
2022-09-27T10:12:35.291Z,96436.06
2022-09-27T10:15:03.012Z,96442.34
2022-09-27T10:17:41.720Z,96437.78
2022-09-27T10:20:08.548Z,96446.88
2022-09-27T10:22:43.186Z,96441.28
2022-09-27T10:25:10.808Z,96430.63
2022-09-27T10:27:45.871Z,96440.63
2022-09-27T10:30:29.803Z,96443.44
2022-09-27T10:33:07.840Z,96442.19
2022-09-27T10:35:39.371Z,96442.19
2022-09-27T10:38:25.665Z,96444.09
2022-09-27T10:40:53.861Z,96442.94
2022-09-27T10:43:30.125Z,96445.75
2022-09-27T10:46:12.685Z,96451.41
2022-09-27T10:48:39.519Z,96452.22
2022-09-27T10:51:07.567Z,96452.69
2022-09-27T10:53:35.389Z,96459.41
2022-09-27T10:56:01.910Z,96449.66
2022-09-27T10:58:33.518Z,96449.56
2022-09-27T11:01:03.261Z,96452.06
2022-09-27T11:03:36.285Z,96455.84
2022-09-27T11:06:28.239Z,96462.41
2022-09-27T11:08:55.516Z,96454.38
2022-09-27T11:11:26.671Z,96465.66
2022-09-27T11:14:08.001Z,96460.97
2022-09-27T11:17:01.083Z,96461.56
2022-09-27T11:19:42.237Z,96467.66
2022-09-27T11:22:15.586Z,96463.44
2022-09-27T11:24:53.711Z,96470.66
2022-09-27T11:27:34.528Z,96475.19
2022-09-27T11:30:05.056Z,96468.00
2022-09-27T11:32:42.108Z,96474.56
2022-09-27T11:35:33.755Z,96490.06
2022-09-27T11:38:09.675Z,96501.66
2022-09-27T11:41:13.702Z,96508.53
2022-09-27T11:43:56.318Z,96500.69
2022-09-27T11:46:40.410Z,96496.44
2022-09-27T11:49:26.819Z,96489.03
2022-09-27T11:52:34.914Z,96492.00
2022-09-27T11:55:24.254Z,96488.06
2022-09-27T11:58:00.792Z,96491.84
2022-09-27T12:00:56.069Z,96492.75
2022-09-27T12:03:43.127Z,96491.19
2022-09-27T12:06:16.252Z,96491.50
2022-09-27T12:08:55.183Z,96479.56
2022-09-27T12:11:25.377Z,96480.66
2022-09-27T12:14:10.976Z,96480.97
2022-09-27T12:16:37.446Z,96478.00
2022-09-27T12:19:04.008Z,96480.66
2022-09-27T12:21:30.682Z,96475.69
2022-09-27T12:24:00.085Z,96477.75
2022-09-27T12:26:30.072Z,96474.75
2022-09-27T12:29:22.355Z,96464.75
2022-09-27T12:32:06.065Z,96471.31
2022-09-27T12:34:49.802Z,96468.31
2022-09-27T12:37:18.939Z,96485.41
2022-09-27T12:40:06.716Z,96489.44
2022-09-27T12:42:43.041Z,96476.13
2022-09-27T12:45:16.203Z,96474.06
2022-09-27T12:48:11.880Z,96477.88
2022-09-27T12:50:45.215Z,96469.88
2022-09-27T12:53:19.954Z,96470.34
2022-09-27T12:56:03.654Z,96472.88
2022-09-27T12:59:00.168Z,96467.69
2022-09-27T13:01:42.287Z,96468.97
2022-09-27T13:04:46.670Z,96476.50
2022-09-27T13:07:41.509Z,96471.00
2022-09-27T13:10:24.123Z,96481.91
2022-09-27T13:12:51.323Z,96474.44
2022-09-27T13:15:33.850Z,96478.19
2022-09-27T13:18:01.904Z,96477.09
2022-09-27T13:20:31.335Z,96466.56
2022-09-27T13:23:18.788Z,96476.13
2022-09-27T13:25:56.264Z,96474.06
2022-09-27T13:28:32.064Z,96474.88
2022-09-27T13:31:00.044Z,96490.53
2022-09-27T13:33:41.474Z,96485.03
2022-09-27T13:36:17.077Z,96485.53
2022-09-27T13:39:04.181Z,96480.97
2022-09-27T13:41:49.056Z,96485.03
2022-09-27T13:44:30.869Z,96478.91
2022-09-27T13:47:00.543Z,96481.59
2022-09-27T13:49:33.955Z,96486.91
2022-09-27T13:52:02.958Z,96488.00
2022-09-27T13:54:39.566Z,96493.34
2022-09-27T13:57:09.644Z,96494.13
2022-09-27T13:59:52.943Z,96496.00
2022-09-27T14:02:21.362Z,96493.34
2022-09-27T14:04:49.711Z,96491.75
2022-09-27T14:07:21.906Z,96497.09
2022-09-27T14:09:49.648Z,96495.22
2022-09-27T14:12:38.056Z,96483.28
2022-09-27T14:15:04.635Z,96485.03
2022-09-27T14:17:31.285Z,96480.09
2022-09-27T14:19:57.745Z,96481.19
2022-09-27T14:22:24.339Z,96485.94
2022-09-27T14:24:51.722Z,96485.09
2022-09-27T14:27:19.089Z,96488.00
2022-09-27T14:29:56.925Z,96486.97
2022-09-27T14:32:25.683Z,96489.06
2022-09-27T14:35:40.911Z,96488.59
2022-09-27T14:38:32.968Z,96492.25
2022-09-27T14:40:59.857Z,96498.03
2022-09-27T14:43:26.505Z,96496.19
2022-09-27T14:45:53.897Z,96499.31
2022-09-27T14:48:33.634Z,96509.50
2022-09-27T14:51:14.596Z,96512.34
2022-09-27T14:53:45.023Z,96515.00
2022-09-27T14:56:17.988Z,96511.25
2022-09-27T14:58:48.454Z,96518.78
2022-09-27T15:01:16.259Z,96524.00
2022-09-27T15:03:44.746Z,96519.91
2022-09-27T15:06:11.350Z,96515.81
2022-09-27T15:08:37.800Z,96513.16
2022-09-27T15:11:10.531Z,96515.66
2022-09-27T15:13:37.512Z,96514.88
2022-09-27T15:16:17.130Z,96510.63
2022-09-27T15:18:45.236Z,96513.31
2022-09-27T15:21:14.266Z,96516.28
2022-09-27T15:23:44.400Z,96501.53
2022-09-27T15:26:13.264Z,96514.88
2022-09-27T15:28:43.120Z,96506.16
2022-09-27T15:31:09.684Z,96510.53
2022-09-27T15:33:36.247Z,96514.31
2022-09-27T15:36:07.286Z,96518.56
2022-09-27T15:38:40.263Z,96517.28
2022-09-27T15:41:14.414Z,96516.97
2022-09-27T15:43:47.913Z,96507.28
2022-09-27T15:46:26.418Z,96513.88
2022-09-27T15:49:17.942Z,96518.75
2022-09-27T15:51:47.929Z,96520.00
2022-09-27T15:54:15.848Z,96529.56
2022-09-27T15:56:42.294Z,96528.78
2022-09-27T15:59:16.678Z,96527.84
2022-09-27T16:01:43.317Z,96534.13
2022-09-27T16:04:09.848Z,96534.44
2022-09-27T16:06:36.289Z,96533.47
2022-09-27T16:09:02.735Z,96532.53
2022-09-27T16:11:29.183Z,96533.63
2022-09-27T16:13:56.178Z,96554.81
2022-09-27T16:16:22.920Z,96550.09
2022-09-27T16:18:49.578Z,96557.47
2022-09-27T16:21:16.262Z,96560.91
2022-09-27T16:23:42.770Z,96559.47
2022-09-27T16:26:09.209Z,96557.31
2022-09-27T16:28:35.718Z,96564.72
2022-09-27T16:31:06.271Z,96555.81
2022-09-27T16:33:32.872Z,96547.31
2022-09-27T16:36:01.320Z,96552.00
2022-09-27T16:38:30.157Z,96542.28
2022-09-27T16:41:02.069Z,96542.75
2022-09-27T16:43:28.922Z,96541.50
2022-09-27T16:45:58.756Z,96547.63
2022-09-27T16:48:25.426Z,96547.31
2022-09-27T16:51:10.517Z,96549.34
2022-09-27T16:53:37.074Z,96548.56
2022-09-27T16:56:03.522Z,96550.75
2022-09-27T16:58:30.543Z,96560.59
2022-09-27T17:00:59.993Z,96558.09
2022-09-27T17:03:26.685Z,96549.31
2022-09-27T17:05:53.121Z,96555.91
2022-09-27T17:08:19.566Z,96548.56
2022-09-27T17:10:46.497Z,96556.88
2022-09-27T17:13:13.421Z,96555.00
2022-09-27T17:15:41.833Z,96554.53
2022-09-27T17:18:08.317Z,96548.88
2022-09-27T17:20:34.764Z,96553.13
2022-09-27T17:23:01.533Z,96547.66
2022-09-27T17:25:27.973Z,96549.84
2022-09-27T17:27:54.748Z,96551.69
2022-09-27T17:30:21.186Z,96555.97
2022-09-27T17:32:47.639Z,96554.25
2022-09-27T17:35:14.189Z,96555.34
2022-09-27T17:37:40.668Z,96552.38
2022-09-27T17:40:07.873Z,96556.00
2022-09-27T17:42:37.489Z,96559.13
2022-09-27T17:45:03.966Z,96552.50
2022-09-27T17:47:48.991Z,96558.78
2022-09-27T17:50:28.583Z,96561.28
2022-09-27T17:52:57.025Z,96562.84
2022-09-27T17:55:23.773Z,96561.91
2022-09-27T17:57:50.319Z,96560.31
2022-09-27T18:00:17.586Z,96565.47
2022-09-27T18:02:45.109Z,96560.75
2022-09-27T18:05:11.764Z,96557.91
2022-09-27T18:07:38.222Z,96561.19
2022-09-27T18:10:05.130Z,96555.22
2022-09-27T18:12:35.132Z,96560.56
2022-09-27T18:15:02.333Z,96567.44
2022-09-27T18:17:28.822Z,96566.28
2022-09-27T18:19:57.008Z,96561.88
2022-09-27T18:22:28.055Z,96567.47
2022-09-27T18:24:54.523Z,96571.09
2022-09-27T18:27:21.177Z,96564.44
2022-09-27T18:29:47.680Z,96571.78
2022-09-27T18:32:14.176Z,96570.38
2022-09-27T18:34:40.840Z,96575.44
2022-09-27T18:37:07.301Z,96577.13
2022-09-27T18:39:33.746Z,96574.94
2022-09-27T18:42:00.294Z,96577.31
2022-09-27T18:44:26.739Z,96575.72
2022-09-27T18:46:53.277Z,96571.34
2022-09-27T18:49:23.507Z,96578.25
2022-09-27T18:51:52.774Z,96574.31
2022-09-27T18:54:20.746Z,96577.78
2022-09-27T18:56:48.311Z,96577.78
2022-09-27T18:59:15.047Z,96578.88
2022-09-27T19:01:44.826Z,96579.38
2022-09-27T19:04:12.855Z,96578.69
2022-09-27T19:06:39.457Z,96576.03
2022-09-27T19:09:06.460Z,96565.97
2022-09-27T19:11:34.026Z,96564.09
2022-09-27T19:14:00.600Z,96570.66
2022-09-27T19:16:27.511Z,96572.13
2022-09-27T19:18:54.027Z,96566.75
2022-09-27T19:21:22.127Z,96569.75
2022-09-27T19:23:49.758Z,96568.66
2022-09-27T19:26:20.316Z,96570.53
2022-09-27T19:28:46.840Z,96571.00
2022-09-27T19:31:17.909Z,96572.13
2022-09-27T19:33:44.411Z,96570.22
2022-09-27T19:36:11.809Z,96568.66
2022-09-27T19:38:38.382Z,96566.28
2022-09-27T19:41:05.729Z,96564.72
2022-09-27T19:43:32.542Z,96567.25
2022-09-27T19:46:05.539Z,96563.16
2022-09-27T19:48:32.195Z,96560.34
2022-09-27T19:50:59.227Z,96567.97
2022-09-27T19:53:29.870Z,96563.09
2022-09-27T19:55:58.896Z,96569.56
2022-09-27T19:58:25.791Z,96566.84
2022-09-27T20:01:06.361Z,96572.97
2022-09-27T20:03:33.277Z,96574.09
2022-09-27T20:05:59.931Z,96570.84
2022-09-27T20:08:27.332Z,96571.69
2022-09-27T20:10:55.168Z,96569.19
2022-09-27T20:13:23.613Z,96567.88
2022-09-27T20:15:50.385Z,96571.97
2022-09-27T20:18:17.049Z,96576.22
2022-09-27T20:20:43.625Z,96569.91
2022-09-27T20:23:10.823Z,96572.59
2022-09-27T20:25:42.157Z,96576.69
2022-09-27T20:28:09.493Z,96570.88
2022-09-27T20:30:35.943Z,96573.09
2022-09-27T20:33:20.722Z,96567.75
2022-09-27T20:35:51.534Z,96564.94
2022-09-27T20:38:18.403Z,96571.41
2022-09-27T20:40:52.594Z,96567.78
2022-09-27T20:43:19.353Z,96560.41
2022-09-27T20:45:45.829Z,96561.50
2022-09-27T20:48:12.294Z,96561.81
2022-09-27T20:50:38.735Z,96561.34
2022-09-27T20:53:05.212Z,96557.56
2022-09-27T20:55:33.408Z,96552.56
2022-09-27T20:57:59.890Z,96555.84
2022-09-27T21:00:26.523Z,96551.63
2022-09-27T21:02:53.041Z,96552.25
2022-09-27T21:05:19.502Z,96551.47
2022-09-27T21:07:45.960Z,96556.81
2022-09-27T21:10:12.399Z,96561.53
2022-09-27T21:12:38.851Z,96552.56
2022-09-27T21:15:05.548Z,96556.03
2022-09-27T21:17:32.526Z,96549.91
2022-09-27T21:19:59.000Z,96552.44
2022-09-27T21:22:25.454Z,96545.84
2022-09-27T21:24:51.896Z,96550.41
2022-09-27T21:27:18.355Z,96543.78
2022-09-27T21:29:44.799Z,96544.91
2022-09-27T21:32:11.251Z,96546.00
2022-09-27T21:34:37.696Z,96545.53
2022-09-27T21:37:04.332Z,96536.28
2022-09-27T21:39:31.385Z,96542.72
2022-09-27T21:41:57.834Z,96545.25
2022-09-27T21:44:24.278Z,96541.00
2022-09-27T21:46:51.947Z,96543.69
2022-09-27T21:49:18.654Z,96549.66
2022-09-27T21:51:45.257Z,96551.88
2022-09-27T21:54:14.688Z,96545.41
2022-09-27T21:56:41.326Z,96543.38
2022-09-27T21:59:10.001Z,96547.16
2022-09-27T22:01:36.614Z,96532.53
2022-09-27T22:04:04.375Z,96533.47
2022-09-27T22:06:32.477Z,96531.47
2022-09-27T22:08:59.400Z,96528.13
2022-09-27T22:11:30.631Z,96525.63
2022-09-27T22:13:57.445Z,96530.19
2022-09-27T22:16:24.764Z,96525.50
2022-09-27T22:18:51.923Z,96534.91
2022-09-27T22:21:21.015Z,96525.81
2022-09-27T22:23:47.466Z,96530.38
2022-09-27T22:26:21.276Z,96523.13
2022-09-27T22:28:47.736Z,96521.41
2022-09-27T22:31:15.112Z,96521.09
2022-09-27T22:33:42.383Z,96519.53
2022-09-27T22:36:08.887Z,96517.03
2022-09-27T22:38:35.568Z,96520.00
2022-09-27T22:41:02.138Z,96506.97
2022-09-27T22:43:29.268Z,96513.72
2022-09-27T22:45:56.735Z,96506.03
2022-09-27T22:48:23.252Z,96501.00
2022-09-27T22:50:49.693Z,96499.75
2022-09-27T22:53:16.153Z,96489.41
2022-09-27T22:55:42.595Z,96493.47
2022-09-27T22:58:09.436Z,96480.75
2022-09-27T23:00:38.035Z,96475.72
2022-09-27T23:03:04.559Z,96482.16
2022-09-27T23:05:31.014Z,96477.16
2022-09-27T23:10:23.772Z,96462.72
2022-09-27T23:12:53.057Z,96461.94
2022-09-27T23:15:19.504Z,96458.81
2022-09-27T23:17:48.549Z,96457.53
2022-09-27T23:20:14.986Z,96457.84
2022-09-27T23:22:41.452Z,96453.63
2022-09-27T23:25:08.244Z,96453.47
2022-09-27T23:27:45.244Z,96461.78
2022-09-27T23:30:13.378Z,96447.97
2022-09-27T23:32:40.296Z,96450.94
2022-09-27T23:35:06.839Z,96448.28
2022-09-27T23:37:33.327Z,96445.91
2022-09-27T23:39:59.792Z,96446.22
2022-09-27T23:42:27.021Z,96438.56
2022-09-27T23:44:53.572Z,96446.06
2022-09-27T23:47:20.278Z,96446.06
2022-09-27T23:49:46.715Z,96438.41
2022-09-27T23:52:13.271Z,96443.72
2022-09-27T23:54:39.726Z,96444.06
2022-09-27T23:57:06.429Z,96436.06
2022-09-27T23:59:32.871Z,96437.16
